Time;durP1;ratioP1;P1;durP2;ratioP2;P2;SDS_P1;SDS_P2;PMS_P1;PMS_P2;Temp;Humidity;BMP_temperature;BMP_pressure;BME280_temperature;BME280_humidity;BME280_pressure;Samples;Min_cycle;Max_cycle;Signal;HPM_P1;HPM_P2
2023/08/26 00:00:47;;;;;;;;;;;;;;;20.99;78.13;100458.95;106540;1262;60497;-84
2023/08/26 00:03:32;;;;;;;;;;;;;;;20.97;78.39;100463.07;106449;1263;124620;-84
2023/08/26 00:05:59;;;;;;;;;;;;;;;21.00;78.44;100465.16;106639;1260;59147;-85
2023/08/26 00:08:25;;;;;;;;;;;;;;;20.98;78.32;100455.02;106461;1259;59167;-85
2023/08/26 00:10:52;;;;;;;;;;;;;;;20.96;78.50;100451.33;106412;1258;124967;-84
2023/08/26 00:13:18;;;;;;;;;;;;;;;20.95;78.54;100460.46;106570;1263;72612;-90
2023/08/26 00:15:45;;;;;;;;;;;;;;;20.93;78.65;100459.61;106515;1264;124412;-85
2023/08/26 00:18:12;;;;;;;;;;;;;;;20.91;78.75;100454.30;106603;1260;72554;-84
2023/08/26 00:20:40;;;;;;;;;;;;;;;20.89;78.70;100455.60;106554;1260;60498;-90
2023/08/26 00:23:08;;;;;;;;;;;;;;;20.87;78.77;100458.49;106658;1259;125194;-87
2023/08/26 00:25:34;;;;;;;;;;;;;;;20.86;78.81;100456.02;106610;1259;73900;-90
2023/08/26 00:28:01;;;;;;;;;;;;;;;20.85;78.97;100456.40;106525;1263;124430;-88
2023/08/26 00:30:28;;;;;;;;;;;;;;;20.84;78.93;100463.20;106457;1259;70591;-89
2023/08/26 00:32:54;;;;;;;;;;;;;;;20.83;78.96;100464.29;106433;1259;124898;-90
2023/08/26 00:35:20;;;;;;;;;;;;;;;20.80;78.99;100455.27;106528;1259;59857;-91
2023/08/26 00:37:48;;;;;;;;;;;;;;;20.78;79.15;100444.59;106555;1262;58880;-89
2023/08/26 00:40:15;;;;;;;;;;;;;;;20.77;79.20;100445.86;106529;1262;124624;-89
2023/08/26 00:42:41;;;;;;;;;;;;;;;20.75;79.20;100445.02;106700;1258;72669;-88
2023/08/26 00:45:08;;;;;;;;;;;;;;;20.72;79.28;100446.52;106510;1259;124559;-89
2023/08/26 00:47:36;;;;;;;;;;;;;;;20.69;79.40;100446.39;106578;1265;60534;-89
2023/08/26 00:50:03;;;;;;;;;;;;;;;20.67;79.37;100443.61;106658;1259;72405;-89
2023/08/26 00:52:29;;;;;;;;;;;;;;;20.61;79.45;100439.44;106478;1259;125588;-89
2023/08/26 00:54:56;;;;;;;;;;;;;;;20.57;79.43;100447.52;106699;1259;71358;-89
2023/08/26 00:57:22;;;;;;;;;;;;;;;20.52;79.49;100446.37;106603;1260;124727;-88
2023/08/26 00:59:49;;;;;;;;;;;;;;;20.46;79.58;100450.77;106579;1257;60438;-92
2023/08/26 01:02:15;;;;;;;;;;;;;;;20.41;79.76;100449.82;106787;1259;60489;-91
2023/08/26 01:04:42;;;;;;;;;;;;;;;20.35;79.86;100451.70;106555;1259;124551;-91
2023/08/26 01:07:09;;;;;;;;;;;;;;;20.31;80.08;100452.16;106483;1259;60600;-91
2023/08/26 01:09:37;;;;;;;;;;;;;;;20.26;80.15;100455.63;106459;1262;124826;-90
2023/08/26 01:12:07;;;;;;;;;;;;;;;20.22;80.32;100459.81;106385;1264;60674;-91
2023/08/26 01:14:33;;;;;;;;;;;;;;;20.18;80.45;100455.80;106556;1259;72291;-91
2023/08/26 01:17:01;;;;;;;;;;;;;;;20.16;80.62;100459.04;106445;1265;123443;-92
2023/08/26 01:19:32;;;;;;;;;;;;;;;20.13;80.64;100457.46;106506;1265;72716;-90
2023/08/26 01:22:00;;;;;;;;;;;;;;;20.11;80.75;100455.21;106510;1259;124852;-90
2023/08/26 01:24:27;;;;;;;;;;;;;;;20.09;80.79;100457.20;106563;1264;60592;-92
2023/08/26 01:26:53;;;;;;;;;;;;;;;20.07;80.76;100454.91;106365;1263;124585;-91
2023/08/26 01:29:20;;;;;;;;;;;;;;;20.04;80.73;100454.83;106463;1264;64659;-91
2023/08/26 01:31:47;;;;;;;;;;;;;;;19.98;80.83;100456.88;106622;1259;60450;-90
2023/08/26 01:34:16;;;;;;;;;;;;;;;19.93;81.02;100468.19;106543;1260;125525;-90
2023/08/26 01:36:43;;;;;;;;;;;;;;;19.89;81.13;100466.99;106445;1265;60563;-88
2023/08/26 01:39:13;;;;;;;;;;;;;;;19.86;81.22;100469.91;106553;1258;124704;-89
2023/08/26 01:41:42;;;;;;;;;;;;;;;19.83;81.36;100473.18;106526;1265;65994;-89
2023/08/26 01:44:09;;;;;;;;;;;;;;;19.78;81.53;100477.36;106726;1259;72325;-89
2023/08/26 01:46:38;;;;;;;;;;;;;;;19.74;81.63;100470.81;106459;1259;125682;-89
2023/08/26 01:49:05;;;;;;;;;;;;;;;19.72;81.76;100477.08;106401;1266;60472;-89
2023/08/26 01:51:31;;;;;;;;;;;;;;;19.70;81.84;100476.04;106620;1259;124805;-89
2023/08/26 01:53:58;;;;;;;;;;;;;;;19.64;81.88;100472.93;106454;1264;65528;-90
2023/08/26 01:56:24;;;;;;;;;;;;;;;19.63;82.03;100473.84;106557;1259;72737;-89
2023/08/26 01:58:51;;;;;;;;;;;;;;;19.59;82.21;100469.98;106498;1259;124474;-89
2023/08/26 02:01:18;;;;;;;;;;;;;;;19.55;82.38;100472.37;106671;1259;60473;-89
2023/08/26 02:03:45;;;;;;;;;;;;;;;19.51;82.53;100479.20;106490;1257;124999;-91
2023/08/26 02:06:11;;;;;;;;;;;;;;;19.49;82.72;100483.67;106683;1259;59201;-93
2023/08/26 02:08:38;;;;;;;;;;;;;;;19.45;82.90;100482.66;106402;1261;58486;-91
2023/08/26 02:11:04;;;;;;;;;;;;;;;19.43;82.96;100479.67;106414;1259;124348;-93
2023/08/26 02:13:31;;;;;;;;;;;;;;;19.40;83.11;100474.20;106501;1259;58715;-93
2023/08/26 02:15:58;;;;;;;;;;;;;;;19.37;83.17;100474.60;106499;1260;124639;-93
2023/08/26 02:18:24;;;;;;;;;;;;;;;19.35;83.24;100478.91;106531;1260;66133;-89
2023/08/26 02:20:51;;;;;;;;;;;;;;;19.33;83.31;100473.06;106558;1264;124682;-92
2023/08/26 02:23:17;;;;;;;;;;;;;;;19.31;83.27;100461.71;106634;1259;60515;-91
2023/08/26 02:25:44;;;;;;;;;;;;;;;19.31;83.61;100460.83;106721;1264;60377;-91
2023/08/26 02:28:10;;;;;;;;;;;;;;;19.32;83.70;100461.70;106468;1264;124439;-90
2023/08/26 02:30:37;;;;;;;;;;;;;;;19.35;83.84;100458.80;106663;1264;60343;-90
2023/08/26 02:33:04;;;;;;;;;;;;;;;19.36;83.85;100462.17;106369;1260;124596;-88
2023/08/26 02:35:30;;;;;;;;;;;;;;;19.35;83.82;100469.29;106534;1259;60498;-90
2023/08/26 02:37:57;;;;;;;;;;;;;;;19.34;83.84;100471.11;106439;1263;60632;-90
2023/08/26 02:40:23;;;;;;;;;;;;;;;19.32;83.81;100466.33;106440;1274;125279;-90
2023/08/26 02:42:50;;;;;;;;;;;;;;;19.31;83.95;100466.34;106585;1262;60384;-90
2023/08/26 02:45:16;;;;;;;;;;;;;;;19.32;84.04;100467.57;106462;1264;125133;-91
2023/08/26 02:47:43;;;;;;;;;;;;;;;19.34;84.05;100465.95;106671;1259;60435;-91
2023/08/26 02:50:10;;;;;;;;;;;;;;;19.33;83.95;100466.67;106310;1259;59895;-91
2023/08/26 02:52:36;;;;;;;;;;;;;;;19.31;83.92;100470.43;106456;1263;124434;-91
2023/08/26 02:55:03;;;;;;;;;;;;;;;19.28;83.83;100463.73;106615;1264;65484;-91
2023/08/26 02:57:29;;;;;;;;;;;;;;;19.24;83.70;100457.56;106402;1261;124838;-91
2023/08/26 02:59:56;;;;;;;;;;;;;;;19.19;83.78;100448.55;106550;1260;60398;-91
2023/08/26 03:02:24;;;;;;;;;;;;;;;19.15;83.77;100442.75;106477;1268;60452;-92
2023/08/26 03:04:51;;;;;;;;;;;;;;;19.12;83.86;100439.41;106551;1263;124509;-93
2023/08/26 03:07:18;;;;;;;;;;;;;;;19.11;84.01;100438.19;106702;1263;64838;-92
2023/08/26 03:09:44;;;;;;;;;;;;;;;19.10;84.13;100438.90;106335;1265;124566;-91
2023/08/26 03:12:11;;;;;;;;;;;;;;;19.10;84.10;100445.84;106434;1264;60393;-91
2023/08/26 03:14:38;;;;;;;;;;;;;;;19.10;84.20;100453.14;106548;1261;60473;-91
2023/08/26 03:17:04;;;;;;;;;;;;;;;19.09;84.21;100467.57;106439;1261;123375;-93
2023/08/26 03:19:31;;;;;;;;;;;;;;;19.09;84.24;100468.27;106389;1266;66066;-93
2023/08/26 03:21:57;;;;;;;;;;;;;;;19.06;84.30;100463.33;106296;1265;124586;-93
2023/08/26 03:24:25;;;;;;;;;;;;;;;19.05;84.23;100466.73;106669;1259;60342;-92
2023/08/26 03:26:52;;;;;;;;;;;;;;;19.03;84.21;100469.77;106434;1259;124928;-91
2023/08/26 03:29:18;;;;;;;;;;;;;;;19.01;84.21;100466.60;106482;1265;60223;-92
2023/08/26 03:31:45;;;;;;;;;;;;;;;18.99;84.21;100464.67;106467;1267;60555;-91
2023/08/26 03:34:11;;;;;;;;;;;;;;;18.96;84.18;100458.31;106553;1261;123522;-89
2023/08/26 03:36:38;;;;;;;;;;;;;;;18.94;84.08;100459.94;106594;1263;60577;-90
2023/08/26 03:39:04;;;;;;;;;;;;;;;18.92;84.24;100460.52;106392;1261;124815;-90
2023/08/26 03:41:31;;;;;;;;;;;;;;;18.90;84.23;100466.77;106511;1265;73646;-93
2023/08/26 03:43:58;;;;;;;;;;;;;;;18.87;84.27;100467.15;106323;1261;64833;-93
2023/08/26 03:46:25;;;;;;;;;;;;;;;18.85;84.24;100467.71;106439;1263;125104;-91
2023/08/26 03:48:51;;;;;;;;;;;;;;;18.83;84.40;100467.56;106469;1263;60393;-92
2023/08/26 03:51:18;;;;;;;;;;;;;;;18.81;84.44;100469.54;106262;1266;124962;-91
2023/08/26 03:53:44;;;;;;;;;;;;;;;18.80;84.48;100468.48;106397;1265;73838;-91
2023/08/26 03:56:11;;;;;;;;;;;;;;;18.81;84.59;100472.92;106487;1260;60461;-91
2023/08/26 03:58:37;;;;;;;;;;;;;;;18.83;84.69;100473.78;106405;1260;124574;-89
2023/08/26 04:01:04;;;;;;;;;;;;;;;18.85;84.68;100475.36;106445;1261;58765;-91
2023/08/26 04:03:31;;;;;;;;;;;;;;;18.85;84.65;100468.43;106400;1258;124668;-93
2023/08/26 04:05:59;;;;;;;;;;;;;;;18.85;84.67;100470.57;106332;1261;73874;-93
2023/08/26 04:08:26;;;;;;;;;;;;;;;18.88;84.72;100463.23;106585;1257;64970;-92
2023/08/26 04:10:56;;;;;;;;;;;;;;;18.88;84.73;100465.17;106208;1263;124659;-89
2023/08/26 04:13:26;;;;;;;;;;;;;;;18.91;84.88;100466.92;106775;1258;60571;-91
2023/08/26 04:15:54;;;;;;;;;;;;;;;18.95;84.89;100470.60;106618;1257;124496;-91
2023/08/26 04:18:21;;;;;;;;;;;;;;;18.93;84.84;100472.75;106614;1264;72260;-94
2023/08/26 04:20:48;;;;;;;;;;;;;;;18.99;85.07;100470.91;106652;1263;125922;-85
2023/08/26 04:23:14;;;;;;;;;;;;;;;19.07;85.24;100461.01;106786;1263;70096;-87
2023/08/26 04:25:41;;;;;;;;;;;;;;;19.19;85.09;100459.23;106765;1258;60449;-92
2023/08/26 04:28:09;;;;;;;;;;;;;;;19.29;85.24;100458.71;106362;1259;124742;-86
2023/08/26 04:30:36;;;;;;;;;;;;;;;19.53;85.69;100456.55;106556;1257;73035;-85
2023/08/26 04:33:04;;;;;;;;;;;;;;;19.89;85.85;100455.44;106641;1257;124605;-88
2023/08/26 04:35:31;;;;;;;;;;;;;;;20.29;85.75;100452.89;106565;1257;72727;-77
2023/08/26 04:37:57;;;;;;;;;;;;;;;20.61;84.86;100451.73;105942;1257;60487;-78
2023/08/26 04:40:25;;;;;;;;;;;;;;;20.83;84.21;100456.80;105929;1260;124998;-77
2023/08/26 04:42:53;;;;;;;;;;;;;;;21.05;83.62;100460.77;105949;1258;75014;-79
2023/08/26 04:45:20;;;;;;;;;;;;;;;21.19;82.89;100454.91;106511;1258;124796;-80
2023/08/26 04:47:46;;;;;;;;;;;;;;;21.21;82.13;100458.27;106670;1257;72565;-79
2023/08/26 04:50:13;;;;;;;;;;;;;;;21.18;81.84;100460.30;106631;1257;60461;-79
2023/08/26 04:52:40;;;;;;;;;;;;;;;21.17;81.73;100456.73;106573;1258;124771;-80
2023/08/26 04:55:07;;;;;;;;;;;;;;;21.19;81.59;100460.11;106462;1263;73255;-80
2023/08/26 04:57:34;;;;;;;;;;;;;;;21.21;81.53;100458.44;106484;1258;124483;-79
2023/08/26 05:00:00;;;;;;;;;;;;;;;21.24;81.27;100463.36;106571;1263;72758;-80
2023/08/26 05:02:27;;;;;;;;;;;;;;;21.31;81.38;100462.30;106803;1263;60565;-81
2023/08/26 05:04:57;;;;;;;;;;;;;;;21.41;81.26;100467.42;106406;1259;124894;-80
2023/08/26 05:07:26;;;;;;;;;;;;;;;21.50;81.21;100474.00;108347;1263;72563;-79
2023/08/26 05:09:56;;;;;;;;;;;;;;;21.66;81.27;100474.16;106518;1263;125662;-80
2023/08/26 05:12:25;;;;;;;;;;;;;;;21.88;81.29;100477.36;106650;1257;70989;-80
2023/08/26 05:14:51;;;;;;;;;;;;;;;22.01;80.59;100474.69;106380;1263;124973;-81
2023/08/26 05:17:17;;;;;;;;;;;;;;;22.02;80.13;100474.13;106653;1260;60316;-80
2023/08/26 05:19:44;;;;;;;;;;;;;;;22.01;79.93;100467.02;106501;1257;60564;-80
2023/08/26 05:22:10;;;;;;;;;;;;;;;21.99;79.65;100467.06;106636;1257;124609;-80
2023/08/26 05:24:37;;;;;;;;;;;;;;;21.95;79.62;100464.29;106776;1257;60406;-80
2023/08/26 05:27:03;;;;;;;;;;;;;;;21.98;79.65;100471.54;106691;1257;124697;-81
2023/08/26 05:29:30;;;;;;;;;;;;;;;21.99;79.80;100473.48;106821;1257;59366;-80
2023/08/26 05:31:56;;;;;;;;;;;;;;;22.11;80.13;100469.41;106786;1262;60508;-80
2023/08/26 05:34:23;;;;;;;;;;;;;;;22.27;80.10;100467.02;106668;1257;124972;-79
2023/08/26 05:36:49;;;;;;;;;;;;;;;22.32;79.63;100465.63;106863;1262;60338;-81
2023/08/26 05:39:16;;;;;;;;;;;;;;;22.29;79.33;100463.93;106432;1260;125087;-80
2023/08/26 05:41:42;;;;;;;;;;;;;;;22.25;79.24;100468.87;106520;1257;60534;-79
2023/08/26 05:44:09;;;;;;;;;;;;;;;22.22;79.24;100476.98;106462;1257;74044;-79
2023/08/26 05:46:35;;;;;;;;;;;;;;;22.22;79.39;100483.05;106436;1257;124465;-81
2023/08/26 05:49:02;;;;;;;;;;;;;;;22.28;79.48;100487.73;106430;1260;58546;-81
2023/08/26 05:51:30;;;;;;;;;;;;;;;22.38;79.60;100493.20;106468;1257;125267;-82
2023/08/26 05:53:57;;;;;;;;;;;;;;;22.49;79.42;100492.52;106517;1257;58565;-82
2023/08/26 05:56:24;;;;;;;;;;;;;;;22.61;79.50;100492.38;106628;1262;72863;-81
2023/08/26 05:58:51;;;;;;;;;;;;;;;22.81;79.22;100491.06;106476;1257;124647;-81
2023/08/26 06:01:20;;;;;;;;;;;;;;;23.08;79.34;100492.21;106478;1257;72487;-81
2023/08/26 06:03:47;;;;;;;;;;;;;;;23.39;78.93;100483.93;107260;1257;124432;-80
2023/08/26 06:06:13;;;;;;;;;;;;;;;23.68;78.43;100492.29;108851;1257;58167;-81
2023/08/26 06:08:42;;;;;;;;;;;;;;;23.97;78.06;100498.86;108919;1257;58958;-81
2023/08/26 06:11:08;;;;;;;;;;;;;;;24.25;77.44;100492.86;107788;1257;125122;-80
2023/08/26 06:13:35;;;;;;;;;;;;;;;24.51;77.14;100486.01;106696;1258;60521;-80
2023/08/26 06:16:02;;;;;;;;;;;;;;;24.92;76.95;100485.74;106620;1257;124641;-80
2023/08/26 06:18:29;;;;;;;;;;;;;;;25.31;76.44;100485.66;106715;1259;60515;-79
2023/08/26 06:20:55;;;;;;;;;;;;;;;25.50;75.25;100487.24;106488;1257;125091;-80
2023/08/26 06:23:22;;;;;;;;;;;;;;;25.57;74.57;100486.75;106635;1260;66254;-82
2023/08/26 06:25:55;;;;;;;;;;;;;;;25.68;74.32;100489.73;106655;1257;60921;-80
2023/08/26 06:28:24;;;;;;;;;;;;;;;25.85;73.82;100499.08;106490;1263;124069;-86
2023/08/26 06:30:56;;;;;;;;;;;;;;;26.00;73.52;100505.48;106498;1263;60391;-79
2023/08/26 06:33:22;;;;;;;;;;;;;;;26.18;73.04;100504.86;106488;1258;124364;-84
2023/08/26 06:35:51;;;;;;;;;;;;;;;26.35;72.67;100501.98;106529;1257;65720;-81
2023/08/26 06:38:18;;;;;;;;;;;;;;;26.50;72.37;100500.25;106668;1258;64156;-85
2023/08/26 06:40:57;;;;;;;;;;;;;;;26.61;71.88;100501.38;106626;1261;123916;-85
2023/08/26 06:43:27;;;;;;;;;;;;;;;26.73;71.50;100499.21;106469;1258;61112;-85
2023/08/26 06:45:54;;;;;;;;;;;;;;;26.85;71.14;100494.51;106297;1257;123764;-85
2023/08/26 06:48:20;;;;;;;;;;;;;;;26.90;70.46;100491.93;106709;1257;60442;-80
2023/08/26 06:50:50;;;;;;;;;;;;;;;26.86;69.93;100495.02;106715;1257;64013;-81
2023/08/26 06:53:21;;;;;;;;;;;;;;;26.76;69.75;100503.40;106651;1257;60414;-82
2023/08/26 06:55:51;;;;;;;;;;;;;;;26.68;69.65;100507.71;106590;1259;59349;-83
2023/08/26 06:58:18;;;;;;;;;;;;;;;26.58;69.23;100508.49;106755;1258;123892;-80
2023/08/26 07:00:44;;;;;;;;;;;;;;;26.48;69.53;100509.34;106640;1257;67265;-77
2023/08/26 07:03:11;;;;;;;;;;;;;;;26.47;69.45;100507.71;105812;1259;124348;-76
2023/08/26 07:05:38;;;;;;;;;;;;;;;26.50;69.35;100499.67;105983;1257;60428;-77
2023/08/26 07:08:04;;;;;;;;;;;;;;;26.51;69.04;100496.95;105829;1257;60540;-76
2023/08/26 07:10:31;;;;;;;;;;;;;;;26.51;69.20;100493.54;105740;1261;124771;-78
2023/08/26 07:12:57;;;;;;;;;;;;;;;26.67;69.31;100498.02;106792;1262;60512;-77
2023/08/26 07:15:28;;;;;;;;;;;;;;;26.86;69.18;100496.99;106842;1264;125178;-78
2023/08/26 07:17:54;;;;;;;;;;;;;;;26.94;68.61;100495.72;106984;1257;60461;-77
2023/08/26 07:20:21;;;;;;;;;;;;;;;26.88;68.35;100500.33;106862;1257;60523;-77
2023/08/26 07:22:47;;;;;;;;;;;;;;;26.83;68.13;100498.94;105770;1258;125162;-73
2023/08/26 07:25:14;;;;;;;;;;;;;;;26.74;67.77;100501.48;105999;1261;64814;-77
2023/08/26 07:27:40;;;;;;;;;;;;;;;26.73;67.93;100502.10;105961;1257;124838;-78
2023/08/26 07:30:07;;;;;;;;;;;;;;;26.72;67.79;100503.21;106494;1261;58635;-77
2023/08/26 07:32:34;;;;;;;;;;;;;;;26.76;67.84;100509.87;106698;1257;60493;-75
2023/08/26 07:35:00;;;;;;;;;;;;;;;26.81;67.73;100517.02;106520;1258;123859;-77
2023/08/26 07:37:27;;;;;;;;;;;;;;;26.85;67.53;100522.95;106529;1257;66207;-76
2023/08/26 07:39:54;;;;;;;;;;;;;;;26.85;67.32;100520.81;105998;1257;123873;-77
2023/08/26 07:42:20;;;;;;;;;;;;;;;26.85;67.10;100521.54;106087;1257;60546;-77
2023/08/26 07:44:47;;;;;;;;;;;;;;;26.84;67.09;100524.46;105659;1258;255221;-77
2023/08/26 07:47:13;;;;;;;;;;;;;;;26.85;67.18;100527.63;105872;1257;123707;-75
2023/08/26 07:49:40;;;;;;;;;;;;;;;26.93;67.21;100528.52;105879;1258;60380;-78
2023/08/26 07:52:06;;;;;;;;;;;;;;;27.04;66.86;100529.46;106435;1262;124533;-76
2023/08/26 07:54:33;;;;;;;;;;;;;;;27.12;66.94;100530.34;105939;1260;60457;-77
2023/08/26 07:57:20;;;;;;;;;;;;;;;27.16;66.73;100533.94;105920;1257;125454;-77
2023/08/26 07:59:59;;;;;;;;;;;;;;;27.10;66.36;100532.94;108798;1257;73537;-77
2023/08/26 08:02:25;;;;;;;;;;;;;;;27.08;66.32;100531.96;107932;1257;60463;-77
2023/08/26 08:04:52;;;;;;;;;;;;;;;27.12;66.38;100535.57;106514;1257;123893;-77
2023/08/26 08:07:18;;;;;;;;;;;;;;;27.22;66.58;100530.98;106564;1258;60572;-77
2023/08/26 08:09:45;;;;;;;;;;;;;;;27.34;66.31;100526.61;106488;1258;123741;-77
2023/08/26 08:12:14;;;;;;;;;;;;;;;27.45;66.07;100523.57;105994;1257;63667;-81
2023/08/26 08:14:41;;;;;;;;;;;;;;;27.56;66.14;100524.11;105899;1257;60569;-80
2023/08/26 08:17:08;;;;;;;;;;;;;;;27.73;66.17;100528.13;106499;1257;124181;-81
2023/08/26 08:19:38;;;;;;;;;;;;;;;27.87;65.77;100524.19;106688;1256;60514;-76
2023/08/26 08:22:05;;;;;;;;;;;;;;;27.95;65.28;100518.94;105904;1257;123783;-81
2023/08/26 08:24:32;;;;;;;;;;;;;;;27.95;64.91;100518.77;106294;1264;65799;-81
2023/08/26 08:26:59;;;;;;;;;;;;;;;27.85;64.45;100519.80;106515;1258;124561;-81
2023/08/26 08:29:25;;;;;;;;;;;;;;;27.74;64.24;100513.67;106017;1258;62832;-81
2023/08/26 08:31:55;;;;;;;;;;;;;;;27.63;64.36;100509.54;105973;1262;62022;-81
2023/08/26 08:34:22;;;;;;;;;;;;;;;27.58;64.57;100510.32;105802;1257;123836;-80
2023/08/26 08:36:48;;;;;;;;;;;;;;;27.50;64.48;100514.30;105977;1258;72739;-81
2023/08/26 08:39:15;;;;;;;;;;;;;;;27.45;64.60;100523.75;106025;1257;123875;-81
2023/08/26 08:41:45;;;;;;;;;;;;;;;27.48;64.67;100528.48;105913;1258;65084;-81
2023/08/26 08:44:19;;;;;;;;;;;;;;;27.49;64.66;100531.11;105889;1261;60442;-83
2023/08/26 08:46:45;;;;;;;;;;;;;;;27.51;65.08;100531.77;106577;1262;124140;-81
2023/08/26 08:49:12;;;;;;;;;;;;;;;27.54;64.87;100525.29;105914;1262;64983;-81
2023/08/26 08:51:41;;;;;;;;;;;;;;;27.55;64.51;100521.81;105954;1257;124250;-81
2023/08/26 08:54:08;;;;;;;;;;;;;;;27.52;64.50;100522.11;105993;1258;63838;-82
2023/08/26 08:56:34;;;;;;;;;;;;;;;27.50;64.49;100517.36;105902;1263;60682;-81
2023/08/26 08:59:02;;;;;;;;;;;;;;;27.50;64.37;100524.78;105976;1258;125124;-82
2023/08/26 09:01:28;;;;;;;;;;;;;;;27.51;64.54;100529.58;105943;1256;65097;-83
2023/08/26 09:03:55;;;;;;;;;;;;;;;27.57;64.57;100523.73;106626;1259;123670;-76
2023/08/26 09:06:22;;;;;;;;;;;;;;;27.63;64.53;100517.45;106056;1261;64861;-76
2023/08/26 09:08:48;;;;;;;;;;;;;;;27.69;64.70;100518.79;105916;1258;60514;-76
2023/08/26 09:11:15;;;;;;;;;;;;;;;27.77;64.71;100520.71;108623;1257;123742;-76
2023/08/26 09:13:43;;;;;;;;;;;;;;;27.73;64.12;100520.36;108977;1257;73858;-76
2023/08/26 09:16:09;;;;;;;;;;;;;;;27.68;64.43;100517.89;108852;1256;123757;-76
2023/08/26 09:18:39;;;;;;;;;;;;;;;27.70;64.41;100517.83;108855;1257;63883;-77
2023/08/26 09:21:06;;;;;;;;;;;;;;;27.72;64.54;100523.16;108845;1257;125650;-76
2023/08/26 09:23:40;;;;;;;;;;;;;;;27.73;64.70;100524.33;107579;1257;60527;-76
2023/08/26 09:26:06;;;;;;;;;;;;;;;27.80;64.72;100523.85;106104;1258;65375;-76
2023/08/26 09:28:34;;;;;;;;;;;;;;;27.86;64.73;100523.17;105860;1258;124046;-76
2023/08/26 09:31:02;;;;;;;;;;;;;;;28.00;64.74;100520.52;106001;1257;62422;-76
2023/08/26 09:33:29;;;;;;;;;;;;;;;28.13;64.50;100522.70;105885;1257;124977;-77
2023/08/26 09:35:56;;;;;;;;;;;;;;;28.28;64.36;100522.09;106064;1260;60512;-76
2023/08/26 09:38:22;;;;;;;;;;;;;;;28.42;64.30;100523.92;105890;1257;65326;-76
2023/08/26 09:40:49;;;;;;;;;;;;;;;28.50;63.94;100528.36;105845;1262;124265;-77
2023/08/26 09:43:15;;;;;;;;;;;;;;;28.60;63.82;100523.32;106137;1257;64151;-76
2023/08/26 09:45:42;;;;;;;;;;;;;;;28.79;63.67;100525.55;105787;1258;124248;-76
2023/08/26 09:48:08;;;;;;;;;;;;;;;28.98;63.31;100523.98;105826;1257;60483;-76
2023/08/26 09:50:35;;;;;;;;;;;;;;;29.14;63.10;100524.57;105795;1258;65373;-76
2023/08/26 09:53:02;;;;;;;;;;;;;;;29.30;62.92;100526.57;105768;1258;124303;-76
2023/08/26 09:55:28;;;;;;;;;;;;;;;29.42;62.69;100525.13;106618;1257;64460;-76
2023/08/26 09:57:55;;;;;;;;;;;;;;;29.54;62.44;100521.02;105779;1257;123883;-76
2023/08/26 10:00:21;;;;;;;;;;;;;;;29.63;62.19;100517.82;105980;1259;60398;-76
2023/08/26 10:02:49;;;;;;;;;;;;;;;29.68;61.80;100518.77;105868;1257;65147;-76
2023/08/26 10:05:16;;;;;;;;;;;;;;;29.67;61.62;100518.85;107081;1257;123555;-76
2023/08/26 10:07:45;;;;;;;;;;;;;;;29.67;61.63;100515.05;105819;1264;64183;-76
2023/08/26 10:10:13;;;;;;;;;;;;;;;29.60;61.38;100515.08;105998;1256;124978;-76
2023/08/26 10:12:40;;;;;;;;;;;;;;;29.46;61.26;100518.59;106086;1258;60381;-76
2023/08/26 10:15:07;;;;;;;;;;;;;;;29.37;61.43;100514.94;105768;1257;123927;-76
2023/08/26 10:17:34;;;;;;;;;;;;;;;29.32;61.52;100516.89;105770;1264;60463;-77
2023/08/26 10:20:00;;;;;;;;;;;;;;;29.25;61.48;100518.15;105878;1257;64884;-77
2023/08/26 10:22:27;;;;;;;;;;;;;;;29.16;61.56;100520.12;106588;1257;123930;-77
2023/08/26 10:24:53;;;;;;;;;;;;;;;29.05;61.58;100519.80;106766;1257;60956;-77
2023/08/26 10:27:20;;;;;;;;;;;;;;;28.95;61.82;100518.91;106426;1262;123945;-77
2023/08/26 10:29:46;;;;;;;;;;;;;;;28.90;61.97;100522.97;106429;1257;60492;-77
2023/08/26 10:32:23;;;;;;;;;;;;;;;28.87;62.13;100522.42;106562;1261;60642;-77
2023/08/26 10:34:54;;;;;;;;;;;;;;;28.80;62.13;100520.43;106601;1261;124026;-82
2023/08/26 10:37:27;;;;;;;;;;;;;;;28.68;62.22;100521.63;106712;1259;60483;-80
2023/08/26 10:39:54;;;;;;;;;;;;;;;28.55;62.50;100520.53;106014;1262;123769;-81
2023/08/26 10:42:29;;;;;;;;;;;;;;;28.42;62.67;100522.11;106000;1257;64936;-82
2023/08/26 10:44:56;;;;;;;;;;;;;;;28.28;62.82;100523.55;106710;1257;62799;-81
2023/08/26 10:47:44;;;;;;;;;;;;;;;28.17;63.12;100526.34;106578;1257;60493;-82
2023/08/26 10:50:20;;;;;;;;;;;;;;;28.05;63.14;100528.92;106654;1259;60472;-81
2023/08/26 10:52:59;;;;;;;;;;;;;;;27.94;63.26;100530.17;105876;1257;124875;-81
2023/08/26 10:55:26;;;;;;;;;;;;;;;27.85;63.44;100531.70;106009;1262;60473;-81
2023/08/26 10:58:12;;;;;;;;;;;;;;;27.82;63.45;100530.94;105997;1257;123853;-81
2023/08/26 11:00:45;;;;;;;;;;;;;;;27.67;62.75;100535.45;105858;1257;60575;-82
2023/08/26 11:03:12;;;;;;;;;;;;;;;27.44;62.54;100539.83;105904;1257;124032;-81
2023/08/26 11:05:43;;;;;;;;;;;;;;;27.17;62.19;100544.36;105841;1258;72725;-81
2023/08/26 11:08:09;;;;;;;;;;;;;;;26.88;62.27;100544.07;105969;1258;66272;-81
2023/08/26 11:10:40;;;;;;;;;;;;;;;26.67;62.49;100543.96;105844;1260;123943;-81
2023/08/26 11:13:06;;;;;;;;;;;;;;;26.49;62.38;100545.61;105880;1257;60578;-81
2023/08/26 11:15:37;;;;;;;;;;;;;;;26.33;62.65;100550.64;105837;1257;124410;-82
2023/08/26 11:18:07;;;;;;;;;;;;;;;26.17;62.56;100554.92;105935;1257;73396;-82
2023/08/26 11:20:34;;;;;;;;;;;;;;;26.00;62.65;100553.12;105994;1257;65069;-81
2023/08/26 11:23:05;;;;;;;;;;;;;;;25.87;62.61;100551.69;105987;1258;123718;-82
2023/08/26 11:25:35;;;;;;;;;;;;;;;25.74;62.66;100547.35;106718;1256;60457;-80
2023/08/26 11:28:03;;;;;;;;;;;;;;;25.63;62.72;100553.35;105880;1262;124700;-82
2023/08/26 11:30:29;;;;;;;;;;;;;;;25.57;62.76;100569.42;106709;1257;74607;-82
2023/08/26 11:32:58;;;;;;;;;;;;;;;25.52;62.78;100577.88;106524;1258;66259;-81
2023/08/26 11:35:25;;;;;;;;;;;;;;;25.45;62.67;100578.34;106660;1258;72786;-81
2023/08/26 11:37:52;;;;;;;;;;;;;;;25.38;62.67;100573.95;106614;1257;59195;-81
2023/08/26 11:40:19;;;;;;;;;;;;;;;25.34;62.87;100573.93;105789;1260;123824;-82
2023/08/26 11:42:45;;;;;;;;;;;;;;;25.33;62.76;100579.73;106584;1261;74453;-80
2023/08/26 11:45:12;;;;;;;;;;;;;;;25.30;62.86;100582.17;105881;1258;123914;-82
2023/08/26 11:47:39;;;;;;;;;;;;;;;25.28;62.73;100588.88;106487;1259;72851;-83
2023/08/26 11:50:06;;;;;;;;;;;;;;;25.27;62.81;100590.37;106614;1258;60518;-83
2023/08/26 11:52:34;;;;;;;;;;;;;;;25.27;62.77;100593.96;105991;1259;124419;-82
2023/08/26 11:55:07;;;;;;;;;;;;;;;25.23;62.45;100587.27;106712;1258;73669;-81
2023/08/26 11:57:35;;;;;;;;;;;;;;;25.15;62.21;100577.67;105845;1258;124343;-81
2023/08/26 12:00:07;;;;;;;;;;;;;;;25.13;62.39;100576.32;106005;1259;73465;-81
2023/08/26 12:02:34;;;;;;;;;;;;;;;25.15;62.35;100583.23;105883;1257;60461;-78
2023/08/26 12:05:00;;;;;;;;;;;;;;;25.27;62.64;100584.08;105865;1258;124229;-80
2023/08/26 12:07:29;;;;;;;;;;;;;;;25.45;62.84;100581.03;105985;1257;73817;-81
2023/08/26 12:09:57;;;;;;;;;;;;;;;25.67;63.02;100583.56;106375;1257;124659;-77
2023/08/26 12:12:25;;;;;;;;;;;;;;;25.95;63.14;100582.64;106586;1257;72793;-76
2023/08/26 12:15:04;;;;;;;;;;;;;;;26.22;62.84;100577.91;105987;1257;60505;-76
2023/08/26 12:17:30;;;;;;;;;;;;;;;26.45;62.43;100571.15;106776;1263;60395;-80
2023/08/26 12:19:57;;;;;;;;;;;;;;;26.66;62.06;100563.40;105963;1257;72562;-77
2023/08/26 12:22:24;;;;;;;;;;;;;;;26.90;61.66;100562.35;105836;1256;123875;-77
2023/08/26 12:24:55;;;;;;;;;;;;;;;27.05;61.24;100568.87;106122;1257;73129;-77